createdAt,value
2023-01-20T00:01:43.192Z,-3.49
2023-01-20T00:04:10.795Z,-3.14
2023-01-20T00:06:38.333Z,-3.50
2023-01-20T00:09:06.353Z,-3.49
2023-01-20T00:11:34.160Z,-3.44
2023-01-20T00:14:03.144Z,-3.45
2023-01-20T00:16:31.950Z,-3.55
2023-01-20T00:19:01.011Z,-3.61
2023-01-20T00:21:29.038Z,-3.51
2023-01-20T00:23:56.886Z,-3.63
2023-01-20T00:26:25.591Z,-3.21
2023-01-20T00:28:54.923Z,-3.26
2023-01-20T00:31:25.244Z,-3.60
2023-01-20T00:33:53.807Z,-3.46
2023-01-20T00:36:23.881Z,-3.07
2023-01-20T00:38:51.484Z,-3.45
2023-01-20T00:41:19.227Z,-3.11
2023-01-20T00:43:46.874Z,-3.40
2023-01-20T00:46:14.509Z,-3.60
2023-01-20T00:48:42.196Z,-3.73
2023-01-20T00:51:10.381Z,-3.17
2023-01-20T00:53:39.284Z,-3.40
2023-01-20T00:56:07.440Z,-3.42
2023-01-20T00:58:34.953Z,-3.83
2023-01-20T01:01:02.500Z,-3.71
2023-01-20T01:03:30.345Z,-3.72
2023-01-20T01:06:07.058Z,-3.83
2023-01-20T01:08:34.650Z,-3.90
2023-01-20T01:11:04.026Z,-3.60
2023-01-20T01:13:32.183Z,-3.79
2023-01-20T01:15:59.812Z,-3.89
2023-01-20T01:18:27.334Z,-3.70
2023-01-20T01:20:54.795Z,-3.61
2023-01-20T01:23:22.391Z,-3.70
2023-01-20T01:25:49.850Z,-3.88
2023-01-20T01:28:18.659Z,-3.93
2023-01-20T01:30:46.274Z,-4.02
2023-01-20T01:33:13.738Z,-4.00
2023-01-20T01:35:42.063Z,-3.81
2023-01-20T01:38:09.583Z,-3.89
2023-01-20T01:40:37.032Z,-3.52
2023-01-20T01:43:04.543Z,-3.74
2023-01-20T01:45:34.629Z,-3.80
2023-01-20T01:48:05.361Z,-3.98
2023-01-20T01:50:38.644Z,-3.57
2023-01-20T01:53:05.982Z,-3.79
2023-01-20T01:55:36.006Z,-4.08
2023-01-20T01:58:04.086Z,-3.72
2023-01-20T02:00:31.589Z,-3.95
2023-01-20T02:03:00.499Z,-3.94
2023-01-20T02:05:29.561Z,-4.31
2023-01-20T02:07:58.997Z,-4.28
2023-01-20T02:10:26.567Z,-4.41
2023-01-20T02:12:54.313Z,-4.37
2023-01-20T02:15:28.411Z,-4.38
2023-01-20T02:18:16.971Z,-4.44
2023-01-20T02:21:07.491Z,-4.45
2023-01-20T02:23:53.942Z,-4.46
2023-01-20T02:26:38.021Z,-4.36
2023-01-20T02:29:21.875Z,-4.57
2023-01-20T02:32:22.973Z,-4.53
2023-01-20T02:34:55.210Z,-4.60
2023-01-20T02:37:26.202Z,-4.68
2023-01-20T02:40:01.393Z,-4.60
2023-01-20T02:42:35.460Z,-4.63
2023-01-20T02:45:06.415Z,-4.66
2023-01-20T02:47:38.495Z,-4.62
2023-01-20T02:50:09.077Z,-4.63
2023-01-20T02:52:39.416Z,-4.77
2023-01-20T02:55:10.349Z,-4.78
2023-01-20T02:57:42.925Z,-4.84
2023-01-20T03:00:14.014Z,-4.44
2023-01-20T03:02:45.587Z,-4.57
2023-01-20T03:05:17.155Z,-4.44
2023-01-20T03:07:45.805Z,-4.54
2023-01-20T03:10:17.354Z,-4.77
2023-01-20T03:12:47.630Z,-4.68
2023-01-20T03:15:16.181Z,-4.57
2023-01-20T03:17:45.248Z,-4.74
2023-01-20T03:20:13.367Z,-4.31
2023-01-20T03:22:40.928Z,-4.72
2023-01-20T03:25:10.572Z,-4.43
2023-01-20T03:27:38.328Z,-4.67
2023-01-20T03:30:07.868Z,-4.62
2023-01-20T03:32:35.452Z,-4.73
2023-01-20T03:35:04.520Z,-4.58
2023-01-20T03:37:32.015Z,-4.51
2023-01-20T03:39:59.609Z,-4.56
2023-01-20T03:42:30.978Z,-4.31
2023-01-20T03:45:04.786Z,-4.37
2023-01-20T03:47:44.990Z,-4.32
2023-01-20T03:50:19.279Z,-4.17
2023-01-20T03:52:51.687Z,-4.30
2023-01-20T03:55:24.133Z,-4.47
2023-01-20T03:57:55.204Z,-4.38
2023-01-20T04:00:25.051Z,-4.27
2023-01-20T04:02:54.757Z,-4.30
2023-01-20T04:05:23.713Z,-4.16
2023-01-20T04:07:51.299Z,-4.33
2023-01-20T04:10:19.314Z,-4.32
2023-01-20T04:12:46.808Z,-3.80
2023-01-20T04:15:14.782Z,-4.02
2023-01-20T04:17:42.559Z,-4.15
2023-01-20T04:20:11.360Z,-4.26
2023-01-20T04:22:46.999Z,-4.08
2023-01-20T04:25:16.630Z,-3.49
2023-01-20T04:27:44.485Z,-3.85
2023-01-20T04:30:14.257Z,-3.84
2023-01-20T04:32:41.766Z,-3.58
2023-01-20T04:35:11.195Z,-3.72
2023-01-20T04:37:38.653Z,-3.66
2023-01-20T04:40:08.927Z,-3.36
2023-01-20T04:42:36.469Z,-3.55
2023-01-20T04:45:04.239Z,-3.74
2023-01-20T04:47:31.949Z,-3.12
2023-01-20T04:49:59.455Z,-3.21
2023-01-20T04:52:26.984Z,-3.03
2023-01-20T04:54:54.516Z,-2.77
2023-01-20T04:57:23.379Z,-2.82
2023-01-20T04:59:50.873Z,-2.65
2023-01-20T05:02:18.490Z,-2.34
2023-01-20T05:04:46.125Z,-2.47
2023-01-20T05:07:13.656Z,-2.24
2023-01-20T05:09:41.124Z,-2.35
2023-01-20T05:12:08.675Z,-2.32
2023-01-20T05:14:37.462Z,-2.29
2023-01-20T05:17:04.997Z,-2.23
2023-01-20T05:19:32.460Z,-2.23
2023-01-20T05:22:00.358Z,-2.16
2023-01-20T05:24:27.811Z,-2.17
2023-01-20T05:26:55.320Z,-1.74
2023-01-20T05:29:22.899Z,-1.94
2023-01-20T05:31:51.686Z,-2.25
2023-01-20T05:34:19.155Z,-2.25
2023-01-20T05:36:46.726Z,-2.27
2023-01-20T05:39:14.236Z,-2.23
2023-01-20T05:41:41.731Z,-2.56
2023-01-20T05:44:09.212Z,-2.49
2023-01-20T05:46:36.713Z,-2.70
2023-01-20T05:49:05.491Z,-2.77
2023-01-20T05:51:33.087Z,-2.63
2023-01-20T05:54:00.575Z,-2.50
2023-01-20T05:56:28.058Z,-2.48
2023-01-20T05:58:55.965Z,-2.55
2023-01-20T06:01:24.035Z,-2.74
2023-01-20T06:03:51.647Z,-2.82
2023-01-20T06:06:20.621Z,-2.88
2023-01-20T06:08:49.802Z,-3.25
2023-01-20T06:11:18.009Z,-3.06
2023-01-20T06:13:48.967Z,-3.67
2023-01-20T06:16:17.367Z,-3.78
2023-01-20T06:18:44.910Z,-3.84
2023-01-20T06:21:12.747Z,-3.87
2023-01-20T06:23:41.719Z,-3.96
2023-01-20T06:26:11.921Z,-3.94
2023-01-20T06:28:39.428Z,-3.89
2023-01-20T06:31:08.955Z,-4.00
2023-01-20T06:33:36.551Z,-3.92
2023-01-20T06:36:05.304Z,-4.00
2023-01-20T06:38:34.294Z,-4.02
2023-01-20T06:41:05.033Z,-3.99
2023-01-20T06:43:33.913Z,-4.12
2023-01-20T06:46:01.591Z,-4.17
2023-01-20T06:48:29.280Z,-4.24
2023-01-20T06:51:01.461Z,-4.27
2023-01-20T06:53:28.947Z,-4.09
2023-01-20T06:55:57.068Z,-4.31
2023-01-20T06:58:26.856Z,-4.40
2023-01-20T07:00:54.640Z,-4.36
2023-01-20T07:03:22.342Z,-4.31
2023-01-20T07:05:55.256Z,-4.07
2023-01-20T07:08:22.997Z,-4.24
2023-01-20T07:10:50.448Z,-4.16
2023-01-20T07:13:17.943Z,-4.29
2023-01-20T07:15:46.813Z,-4.54
2023-01-20T07:18:14.324Z,-4.62
2023-01-20T07:20:43.247Z,-4.66
2023-01-20T07:23:10.948Z,-4.68
2023-01-20T07:25:39.508Z,-4.68
2023-01-20T07:28:07.403Z,-4.23
2023-01-20T07:30:34.915Z,-4.63
2023-01-20T07:33:05.508Z,-4.75
2023-01-20T07:35:33.016Z,-4.82
2023-01-20T07:38:00.588Z,-4.81
2023-01-20T07:40:28.052Z,-4.79
2023-01-20T07:42:55.513Z,-4.81
2023-01-20T07:45:22.976Z,-4.73
2023-01-20T07:47:50.427Z,-4.36
2023-01-20T07:50:19.244Z,-3.99
2023-01-20T07:52:46.708Z,-4.52
2023-01-20T07:55:14.596Z,-4.52
2023-01-20T07:57:42.242Z,-4.38
2023-01-20T08:00:10.987Z,-4.44
2023-01-20T08:02:39.148Z,-4.56
2023-01-20T08:05:10.488Z,-4.48
2023-01-20T08:07:39.331Z,-4.47
2023-01-20T08:10:07.910Z,-4.43
2023-01-20T08:12:35.440Z,-4.38
2023-01-20T08:15:02.952Z,-4.35
2023-01-20T08:17:30.411Z,-4.30
2023-01-20T08:19:58.967Z,-4.19
2023-01-20T08:22:26.749Z,-4.16
2023-01-20T08:24:55.504Z,-4.17
2023-01-20T08:27:22.939Z,-3.68
2023-01-20T08:29:50.362Z,-3.47
2023-01-20T08:32:17.828Z,-3.45
2023-01-20T08:34:45.383Z,-3.15
2023-01-20T08:37:12.906Z,-3.57
2023-01-20T08:39:40.367Z,-3.80
2023-01-20T08:42:09.165Z,-3.73
2023-01-20T08:44:36.627Z,-3.70
2023-01-20T08:47:04.462Z,-3.24
2023-01-20T08:49:32.217Z,-2.82
2023-01-20T08:51:59.712Z,-2.78
2023-01-20T08:54:29.313Z,-2.63
2023-01-20T08:56:56.808Z,-2.95
2023-01-20T08:59:25.576Z,-2.61
2023-01-20T09:01:53.041Z,-2.82
2023-01-20T09:04:20.494Z,-2.95
2023-01-20T09:06:50.194Z,-2.46
2023-01-20T09:09:19.320Z,-2.37
2023-01-20T09:11:51.151Z,-2.20
2023-01-20T09:14:19.089Z,-2.17
2023-01-20T09:16:48.471Z,-2.19
2023-01-20T09:19:16.011Z,-2.00
2023-01-20T09:21:43.619Z,-1.51
2023-01-20T09:24:17.688Z,-1.53
2023-01-20T09:26:45.317Z,-1.51
2023-01-20T09:29:15.346Z,-1.56
2023-01-20T09:31:45.238Z,-1.37
2023-01-20T09:34:19.057Z,-1.15
2023-01-20T09:36:46.918Z,-0.89
2023-01-20T09:39:32.173Z,-1.31
2023-01-20T09:42:22.423Z,-0.94
2023-01-20T09:44:53.395Z,-0.83
2023-01-20T09:47:31.369Z,-0.41
2023-01-20T09:50:27.620Z,-0.43
2023-01-20T09:53:04.748Z,-0.29
2023-01-20T09:55:40.685Z,-0.21
2023-01-20T09:58:13.381Z,0.06
2023-01-20T10:00:42.314Z,0.02
2023-01-20T10:03:14.588Z,0.13
2023-01-20T10:05:43.946Z,0.04
2023-01-20T10:08:14.745Z,0.25
2023-01-20T10:10:48.626Z,0.13
2023-01-20T10:13:20.268Z,0.28
2023-01-20T10:15:50.071Z,0.28
2023-01-20T10:18:18.922Z,0.33
2023-01-20T10:20:50.121Z,0.21
2023-01-20T10:23:21.459Z,0.32
2023-01-20T10:25:52.452Z,0.45
2023-01-20T10:28:24.683Z,0.62
2023-01-20T10:30:52.318Z,0.18
2023-01-20T10:33:22.178Z,0.24
2023-01-20T10:35:52.860Z,0.54
2023-01-20T10:38:23.857Z,0.80
2023-01-20T10:40:54.932Z,0.80
2023-01-20T10:43:22.561Z,0.80
2023-01-20T10:46:18.542Z,0.99
2023-01-20T10:49:00.445Z,1.08
2023-01-20T10:51:34.323Z,1.17
2023-01-20T10:54:10.566Z,0.39
2023-01-20T10:56:43.747Z,0.82
2023-01-20T10:59:15.342Z,0.61
2023-01-20T11:01:44.278Z,1.01
2023-01-20T11:04:18.355Z,1.25
2023-01-20T11:06:50.308Z,0.54
2023-01-20T11:09:21.855Z,0.54
2023-01-20T11:11:49.491Z,0.72
2023-01-20T11:14:17.076Z,1.17
2023-01-20T11:16:48.087Z,0.86
2023-01-20T11:19:15.836Z,0.62
2023-01-20T11:21:43.311Z,0.58
2023-01-20T11:27:12.053Z,0.72
2023-01-20T11:29:42.181Z,0.84
2023-01-20T11:32:25.839Z,0.86
2023-01-20T11:34:53.959Z,1.62
2023-01-20T11:37:22.576Z,0.95
2023-01-20T11:40:00.237Z,1.03
2023-01-20T11:42:30.685Z,0.63
2023-01-20T11:45:15.290Z,0.63
2023-01-20T11:47:47.064Z,1.25
2023-01-20T11:50:31.130Z,1.52
2023-01-20T11:53:20.139Z,0.88
2023-01-20T11:55:53.853Z,1.48
2023-01-20T11:58:24.451Z,1.86
2023-01-20T12:00:54.228Z,1.63
2023-01-20T12:03:39.708Z,1.87
2023-01-20T12:06:13.392Z,1.97
2023-01-20T12:08:46.770Z,1.49
2023-01-20T12:11:16.126Z,1.68
2023-01-20T12:14:07.372Z,1.99
2023-01-20T12:16:35.640Z,1.08
2023-01-20T12:19:05.869Z,1.30
2023-01-20T12:21:36.753Z,1.96
2023-01-20T12:24:10.705Z,1.04
2023-01-20T12:26:38.252Z,1.07
2023-01-20T12:29:12.943Z,1.18
2023-01-20T12:31:40.592Z,0.91
2023-01-20T12:34:12.272Z,1.74
2023-01-20T12:37:03.302Z,1.38
2023-01-20T12:39:44.274Z,1.10
2023-01-20T12:42:24.008Z,1.11
2023-01-20T12:44:54.941Z,2.04
2023-01-20T12:47:35.443Z,2.26
2023-01-20T12:50:15.147Z,1.73
2023-01-20T12:52:52.136Z,1.34
2023-01-20T12:55:32.844Z,1.94
2023-01-20T12:58:09.146Z,2.24
2023-01-20T13:01:04.621Z,1.46
2023-01-20T13:03:56.615Z,2.57
2023-01-20T13:06:44.517Z,2.45
2023-01-20T13:09:25.684Z,2.62
2023-01-20T13:12:03.122Z,2.76
2023-01-20T13:14:39.221Z,2.21
2023-01-20T13:17:16.730Z,1.80
2023-01-20T13:19:47.963Z,1.55
2023-01-20T13:22:18.111Z,1.83
2023-01-20T13:24:47.522Z,1.90
2023-01-20T13:27:16.137Z,1.28
2023-01-20T13:29:53.626Z,1.70
2023-01-20T13:32:34.373Z,1.74
2023-01-20T13:35:02.971Z,1.32
2023-01-20T13:37:33.405Z,1.49
2023-01-20T13:40:01.151Z,2.04
2023-01-20T13:42:31.236Z,1.79
2023-01-20T13:45:17.664Z,1.35
2023-01-20T13:47:57.368Z,1.62
2023-01-20T13:50:27.355Z,2.24
2023-01-20T13:53:16.420Z,2.14
2023-01-20T13:56:00.477Z,1.53
2023-01-20T13:58:29.678Z,1.44
2023-01-20T14:00:58.694Z,1.49
2023-01-20T14:03:30.011Z,1.67
2023-01-20T14:06:00.578Z,1.49
2023-01-20T14:08:30.557Z,1.26
2023-01-20T14:11:08.831Z,1.31
2023-01-20T14:13:36.335Z,1.79
2023-01-20T14:16:03.903Z,1.62
2023-01-20T14:18:32.892Z,1.83
2023-01-20T14:21:03.905Z,1.37
2023-01-20T14:23:35.184Z,2.09
2023-01-20T14:26:05.678Z,2.12
2023-01-20T14:28:35.462Z,1.99
2023-01-20T14:31:13.834Z,2.34
2023-01-20T14:33:47.075Z,2.21
2023-01-20T14:36:18.720Z,2.19
2023-01-20T14:38:57.286Z,2.17
2023-01-20T14:41:30.826Z,2.09
2023-01-20T14:43:58.839Z,2.41
2023-01-20T14:46:27.558Z,1.98
2023-01-20T14:48:57.123Z,2.25
2023-01-20T14:51:24.761Z,2.02
2023-01-20T14:54:44.903Z,1.74
2023-01-20T14:57:20.011Z,1.86
2023-01-20T14:59:47.528Z,1.47
2023-01-20T15:02:20.577Z,1.80
2023-01-20T15:04:49.264Z,1.17
2023-01-20T15:07:19.481Z,1.29
2023-01-20T15:09:52.724Z,1.53
2023-01-20T15:12:40.350Z,1.08
2023-01-20T15:15:14.825Z,0.83
2023-01-20T15:18:15.886Z,1.97
2023-01-20T15:20:46.791Z,1.80
2023-01-20T15:23:31.295Z,1.78
2023-01-20T15:26:08.489Z,1.96
2023-01-20T15:28:38.732Z,1.22
2023-01-20T15:31:06.448Z,0.90
2023-01-20T15:33:33.954Z,0.80
2023-01-20T15:36:02.745Z,0.65
2023-01-20T15:38:33.016Z,-0.27
2023-01-20T15:41:00.495Z,-0.66
2023-01-20T15:43:28.011Z,-0.85
2023-01-20T15:45:55.466Z,-0.85
2023-01-20T15:48:24.374Z,-0.96
2023-01-20T15:50:51.948Z,-0.99
2023-01-20T15:53:20.735Z,-0.28
2023-01-20T15:55:51.716Z,-1.02
2023-01-20T15:58:25.337Z,-1.27
2023-01-20T16:00:53.283Z,-1.50
2023-01-20T16:03:20.785Z,-1.67
2023-01-20T16:05:49.439Z,-1.74
2023-01-20T16:08:18.031Z,-1.71
2023-01-20T16:10:46.930Z,-1.76
2023-01-20T16:13:14.890Z,-1.90
2023-01-20T16:15:43.410Z,-1.98
2023-01-20T16:18:15.458Z,-1.90
2023-01-20T16:20:43.895Z,-1.44
2023-01-20T16:23:11.863Z,-1.85
2023-01-20T16:25:40.038Z,-2.16
2023-01-20T16:28:15.544Z,-2.10
2023-01-20T16:30:43.513Z,-1.43
2023-01-20T16:33:18.935Z,-0.92
2023-01-20T16:35:46.681Z,-1.74
2023-01-20T16:38:15.597Z,-2.16
2023-01-20T16:40:47.537Z,-1.80
2023-01-20T16:43:17.512Z,-1.45
2023-01-20T16:45:45.398Z,-1.54
2023-01-20T16:48:12.985Z,-1.62
2023-01-20T16:50:40.472Z,-0.60
2023-01-20T16:53:07.950Z,-1.80
2023-01-20T16:55:35.436Z,-2.02
2023-01-20T16:58:03.012Z,-1.88
2023-01-20T17:00:31.809Z,-2.17
2023-01-20T17:02:59.292Z,-2.28
2023-01-20T17:05:28.386Z,-2.28
2023-01-20T17:07:57.614Z,-2.26
2023-01-20T17:10:26.291Z,-2.22
2023-01-20T17:12:54.357Z,-2.19
2023-01-20T17:15:22.400Z,-2.22
2023-01-20T17:17:51.905Z,-2.09
2023-01-20T17:20:19.852Z,-1.82
2023-01-20T17:22:47.775Z,-1.28
2023-01-20T17:25:17.935Z,-0.56
2023-01-20T17:27:45.844Z,-0.29
2023-01-20T17:30:14.152Z,-0.18
2023-01-20T17:32:42.190Z,-0.15
2023-01-20T17:35:11.421Z,0.04
2023-01-20T17:37:38.934Z,-0.59
2023-01-20T17:40:07.474Z,-0.59
2023-01-20T17:42:34.946Z,-1.05
2023-01-20T17:45:06.386Z,-0.21
2023-01-20T17:47:33.865Z,-0.01
2023-01-20T17:50:01.354Z,-0.08
2023-01-20T17:52:30.230Z,-0.93
2023-01-20T17:54:57.724Z,-1.96
2023-01-20T17:57:27.015Z,-1.32
2023-01-20T17:59:54.703Z,-1.89
2023-01-20T18:02:22.397Z,-2.12
2023-01-20T18:04:49.932Z,-1.85
2023-01-20T18:07:17.660Z,-2.04
2023-01-20T18:09:46.433Z,-2.05
2023-01-20T18:12:14.399Z,-2.07
2023-01-20T18:14:41.881Z,-2.19
2023-01-20T18:17:09.406Z,-2.10
2023-01-20T18:19:36.905Z,-2.15
2023-01-20T18:22:06.948Z,-1.48
2023-01-20T18:24:34.595Z,-1.90
2023-01-20T18:27:03.380Z,-1.69
2023-01-20T18:29:31.189Z,-0.82
2023-01-20T18:31:59.030Z,-1.83
2023-01-20T18:34:26.543Z,-1.51
2023-01-20T18:36:54.178Z,-1.52
2023-01-20T18:39:23.593Z,-1.69
2023-01-20T18:41:52.265Z,-1.96
2023-01-20T18:44:23.099Z,-2.13
2023-01-20T18:46:50.807Z,-2.05
2023-01-20T18:49:18.584Z,-2.21
2023-01-20T18:51:46.106Z,-2.24
2023-01-20T18:54:14.811Z,-2.26
2023-01-20T18:56:42.294Z,-2.21
2023-01-20T18:59:11.069Z,-2.27
2023-01-20T19:01:41.222Z,-2.25
2023-01-20T19:04:10.723Z,-2.29
2023-01-20T19:06:41.850Z,-2.32
2023-01-20T19:09:09.893Z,-2.33
2023-01-20T19:11:39.583Z,-2.20
2023-01-20T19:14:07.903Z,-1.95
2023-01-20T19:16:37.822Z,-2.21
2023-01-20T19:19:07.892Z,-1.58
2023-01-20T19:21:36.563Z,-2.00
2023-01-20T19:24:06.074Z,-1.97
2023-01-20T19:26:35.463Z,-2.32
2023-01-20T19:29:04.913Z,-2.33
2023-01-20T19:31:34.207Z,-1.63
2023-01-20T19:34:01.995Z,-2.23
2023-01-20T19:36:30.805Z,-2.34
2023-01-20T19:39:00.141Z,-2.04
2023-01-20T19:41:29.215Z,-2.50
2023-01-20T19:43:57.978Z,-2.53
2023-01-20T19:46:27.221Z,-2.69
2023-01-20T19:48:56.486Z,-2.83
2023-01-20T19:51:24.456Z,-2.86
2023-01-20T19:53:57.802Z,-2.19
2023-01-20T19:56:26.525Z,-2.91
2023-01-20T19:58:55.255Z,-2.99
2023-01-20T20:01:24.850Z,-3.06
2023-01-20T20:03:53.802Z,-3.17
2023-01-20T20:06:24.101Z,-3.14
2023-01-20T20:08:52.310Z,-3.14
2023-01-20T20:11:21.128Z,-3.34
2023-01-20T20:13:48.924Z,-3.28
2023-01-20T20:16:16.570Z,-3.52
2023-01-20T20:18:44.181Z,-3.21
2023-01-20T20:21:11.846Z,-3.42
2023-01-20T20:23:39.331Z,-3.55
2023-01-20T20:26:06.915Z,-3.50
2023-01-20T20:28:35.882Z,-3.38
2023-01-20T20:31:05.991Z,-3.24
2023-01-20T20:33:34.230Z,-3.59
2023-01-20T20:36:06.560Z,-3.54
2023-01-20T20:38:36.544Z,-3.47
2023-01-20T20:41:04.774Z,-3.75
2023-01-20T20:43:32.317Z,-3.26
2023-01-20T20:46:01.813Z,-2.81
2023-01-20T20:48:29.801Z,-2.81
2023-01-20T20:50:57.445Z,-3.14
2023-01-20T20:53:25.047Z,-3.25
2023-01-20T20:55:55.280Z,-3.58
2023-01-20T20:58:23.325Z,-3.28
2023-01-20T21:00:51.746Z,-2.99
2023-01-20T21:03:20.534Z,-3.60
2023-01-20T21:05:49.407Z,-3.36
2023-01-20T21:08:17.187Z,-3.50
2023-01-20T21:10:44.666Z,-3.27
2023-01-20T21:13:12.231Z,-3.42
2023-01-20T21:15:39.760Z,-3.52
2023-01-20T21:18:07.481Z,-3.22
2023-01-20T21:20:36.318Z,-3.28
2023-01-20T21:23:04.518Z,-3.36
2023-01-20T21:25:32.863Z,-3.33
2023-01-20T21:28:00.369Z,-3.06
2023-01-20T21:30:27.939Z,-3.15
2023-01-20T21:32:56.548Z,-3.33
2023-01-20T21:35:24.160Z,-3.32
2023-01-20T21:37:53.210Z,-3.43
2023-01-20T21:40:20.803Z,-3.48
2023-01-20T21:42:49.838Z,-3.60
2023-01-20T21:45:16.763Z,-3.19
2023-01-20T21:47:44.235Z,-3.64
2023-01-20T21:50:29.735Z,-3.70
2023-01-20T21:52:58.822Z,-3.76
2023-01-20T21:55:26.274Z,-3.87
2023-01-20T21:57:53.816Z,-4.00
2023-01-20T22:00:22.003Z,-3.93
2023-01-20T22:02:49.773Z,-3.99
2023-01-20T22:05:18.282Z,-3.82
2023-01-20T22:07:47.795Z,-4.00
2023-01-20T22:10:17.534Z,-4.09
2023-01-20T22:12:45.399Z,-4.08
2023-01-20T22:15:13.470Z,-4.21
2023-01-20T22:17:41.368Z,-4.32
2023-01-20T22:20:10.671Z,-4.33
2023-01-20T22:22:38.411Z,-4.35
2023-01-20T22:25:07.370Z,-4.40
2023-01-20T22:27:36.355Z,-4.32
2023-01-20T22:30:04.174Z,-4.38
2023-01-20T22:32:31.880Z,-4.44
2023-01-20T22:34:59.637Z,-4.59
2023-01-20T22:37:27.088Z,-4.66
2023-01-20T22:39:54.589Z,-4.58
2023-01-20T22:42:22.040Z,-4.66
2023-01-20T22:44:50.926Z,-4.71
2023-01-20T22:47:18.395Z,-4.62
2023-01-20T22:49:45.851Z,-4.65
2023-01-20T22:52:13.529Z,-4.46
2023-01-20T22:54:40.967Z,-4.52
2023-01-20T22:57:08.428Z,-4.78
2023-01-20T22:59:36.475Z,-4.62
2023-01-20T23:02:05.544Z,-4.94
2023-01-20T23:04:33.136Z,-5.00
2023-01-20T23:07:00.793Z,-4.99
2023-01-20T23:09:28.535Z,-4.99
2023-01-20T23:11:56.012Z,-4.97
2023-01-20T23:14:51.797Z,-4.96
2023-01-20T23:17:20.592Z,-5.02
2023-01-20T23:19:48.044Z,-5.04
2023-01-20T23:22:15.550Z,-5.06
2023-01-20T23:24:43.032Z,-5.18
2023-01-20T23:27:10.655Z,-5.24
2023-01-20T23:29:38.309Z,-5.16
2023-01-20T23:32:06.382Z,-5.28
2023-01-20T23:34:35.173Z,-5.31
2023-01-20T23:37:02.821Z,-5.17
2023-01-20T23:39:30.303Z,-5.35
2023-01-20T23:41:57.887Z,-5.39
2023-01-20T23:44:25.491Z,-5.32
2023-01-20T23:46:53.195Z,-5.30
2023-01-20T23:49:22.615Z,-5.27
2023-01-20T23:51:51.691Z,-5.32
2023-01-20T23:54:19.303Z,-5.27
2023-01-20T23:56:47.003Z,-5.16
2023-01-20T23:59:14.587Z,-5.05
